Time;durP1;ratioP1;P1;durP2;ratioP2;P2;SDS_P1;SDS_P2;PMS_P1;PMS_P2;Temp;Humidity;BMP_temperature;BMP_pressure;BME280_temperature;BME280_humidity;BME280_pressure;Samples;Min_cycle;Max_cycle;Signal;HPM_P1;HPM_P2
2022/08/09 00:00:05;;;;;;;4.03;1.90;;;20.90;60.90;;;;;;5113211;28;20063;-71
2022/08/09 00:02:32;;;;;;;2.75;2.15;;;20.90;60.80;;;;;;5113259;28;20044;-71
2022/08/09 00:04:58;;;;;;;4.70;2.40;;;20.90;61.00;;;;;;5112983;28;20043;-71
2022/08/09 00:07:23;;;;;;;5.60;2.13;;;20.90;61.10;;;;;;5113286;28;20394;-71
2022/08/09 00:09:49;;;;;;;3.60;2.00;;;20.80;61.00;;;;;;5114672;28;20074;-71
2022/08/09 00:12:15;;;;;;;5.70;1.92;;;20.80;60.90;;;;;;5117199;28;20029;-71
2022/08/09 00:14:40;;;;;;;2.63;2.00;;;20.80;61.00;;;;;;5117190;28;20028;-72
2022/08/09 00:17:06;;;;;;;2.83;2.00;;;20.90;61.00;;;;;;5117107;28;20061;-71
2022/08/09 00:19:32;;;;;;;3.08;1.95;;;20.70;61.30;;;;;;5117183;28;20032;-72
2022/08/09 00:21:57;;;;;;;3.28;2.05;;;20.80;61.20;;;;;;5116948;28;20062;-71
2022/08/09 00:24:24;;;;;;;4.55;2.30;;;20.80;61.10;;;;;;5116965;28;20050;-72
2022/08/09 00:26:50;;;;;;;3.78;2.22;;;20.70;61.20;;;;;;5116930;28;20021;-71
2022/08/09 00:29:16;;;;;;;5.53;2.17;;;20.60;61.50;;;;;;5116841;28;20020;-72
2022/08/09 00:31:41;;;;;;;3.22;2.30;;;20.60;61.60;;;;;;5115960;28;20024;-71
2022/08/09 00:34:07;;;;;;;2.88;2.25;;;20.60;61.70;;;;;;5116782;28;20039;-72
2022/08/09 00:36:32;;;;;;;6.60;2.42;;;20.60;61.70;;;;;;5116766;28;20032;-71
2022/08/09 00:38:58;;;;;;;3.58;2.25;;;20.60;61.80;;;;;;5116705;28;20038;-71
2022/08/09 00:41:24;;;;;;;3.92;2.28;;;20.60;61.80;;;;;;5116577;28;20052;-72
2022/08/09 00:43:50;;;;;;;4.18;2.15;;;20.50;62.00;;;;;;5116624;28;20024;-72
2022/08/09 00:46:17;;;;;;;4.45;2.55;;;20.50;62.00;;;;;;5116556;28;20466;-71
2022/08/09 00:48:42;;;;;;;4.47;2.10;;;20.40;62.00;;;;;;5116503;28;20024;-71
2022/08/09 00:51:08;;;;;;;3.40;2.42;;;20.40;62.10;;;;;;5116601;28;20046;-71
2022/08/09 00:53:35;;;;;;;3.38;2.40;;;20.40;62.40;;;;;;5116422;28;20070;-71
2022/08/09 00:56:02;;;;;;;5.15;2.40;;;20.40;62.40;;;;;;5116387;28;20035;-71
2022/08/09 00:58:30;;;;;;;5.90;2.60;;;20.30;62.30;;;;;;5115341;28;20032;-71
2022/08/09 01:00:56;;;;;;;3.08;2.10;;;20.40;62.50;;;;;;5116219;28;20036;-71
2022/08/09 01:03:40;;;;;;;4.20;2.25;;;20.30;62.70;;;;;;5116033;28;20024;-71
2022/08/09 01:06:11;;;;;;;5.18;2.72;;;20.30;62.90;;;;;;5116202;28;20505;-71
2022/08/09 01:09:06;;;;;;;4.18;2.45;;;20.20;62.90;;;;;;5116136;28;20494;-71
2022/08/09 01:11:35;;;;;;;6.32;3.00;;;20.20;62.90;;;;;;5116285;28;20032;-71
2022/08/09 01:14:07;;;;;;;3.20;2.20;;;20.20;63.00;;;;;;5116069;28;20036;-71
2022/08/09 01:16:38;;;;;;;3.58;2.17;;;20.10;63.00;;;;;;5116230;28;20028;-71
2022/08/09 01:19:13;;;;;;;2.53;2.28;;;20.10;63.10;;;;;;5115967;28;20031;-71
2022/08/09 01:21:48;;;;;;;4.20;2.28;;;20.10;63.20;;;;;;5114488;28;20080;-71
2022/08/09 01:24:35;;;;;;;3.30;2.25;;;20.00;63.20;;;;;;5115902;28;20034;-71
2022/08/09 01:27:09;;;;;;;3.10;2.40;;;20.10;63.00;;;;;;5115968;28;20046;-71
2022/08/09 01:29:48;;;;;;;3.42;2.30;;;20.00;63.10;;;;;;5115623;28;20024;-71
2022/08/09 01:32:17;;;;;;;7.40;2.78;;;20.00;63.20;;;;;;5115817;28;20027;-71
2022/08/09 01:34:45;;;;;;;3.72;2.30;;;20.00;63.30;;;;;;5115762;28;20024;-71
2022/08/09 01:37:14;;;;;;;3.95;2.53;;;19.90;63.50;;;;;;5115575;28;20035;-71
2022/08/09 01:39:41;;;;;;;4.88;2.47;;;19.80;63.70;;;;;;5115577;28;20070;-71
2022/08/09 01:42:07;;;;;;;3.80;2.45;;;19.80;63.90;;;;;;5115426;28;20080;-71
2022/08/09 01:44:34;;;;;;;3.30;2.17;;;19.80;64.10;;;;;;5115426;28;20028;-71
2022/08/09 01:47:02;;;;;;;4.22;2.50;;;19.70;64.00;;;;;;5115375;28;20028;-71
2022/08/09 01:49:30;;;;;;;3.42;2.22;;;19.80;64.00;;;;;;5115459;28;20042;-72
2022/08/09 01:52:02;;;;;;;5.05;2.40;;;19.70;64.30;;;;;;5115285;28;20020;-72
2022/08/09 01:54:34;;;;;;;3.55;2.28;;;19.60;64.50;;;;;;5115401;28;20024;-71
2022/08/09 01:57:16;;;;;;;3.42;2.45;;;19.70;64.50;;;;;;5115254;28;20103;-71
2022/08/09 01:59:45;;;;;;;4.75;2.47;;;19.60;64.40;;;;;;5115352;28;20027;-71
2022/08/09 02:02:13;;;;;;;4.13;2.40;;;19.70;64.50;;;;;;5114074;28;20050;-71
2022/08/09 02:04:40;;;;;;;5.13;2.10;;;19.70;64.20;;;;;;5114841;28;20040;-71
2022/08/09 02:07:12;;;;;;;5.07;2.40;;;19.60;64.30;;;;;;5115006;28;20024;-71
2022/08/09 02:09:45;;;;;;;3.35;2.40;;;19.70;64.30;;;;;;5115063;28;20022;-71
2022/08/09 02:12:13;;;;;;;4.15;2.40;;;19.60;64.10;;;;;;5114964;28;20024;-71
2022/08/09 02:14:42;;;;;;;3.30;2.33;;;19.60;64.20;;;;;;5114862;28;20025;-71
2022/08/09 02:17:11;;;;;;;4.13;2.42;;;19.60;64.10;;;;;;5114791;28;20030;-71
2022/08/09 02:19:37;;;;;;;6.43;2.75;;;19.60;64.00;;;;;;5114774;28;20028;-71
2022/08/09 02:22:12;;;;;;;5.20;2.97;;;19.70;64.10;;;;;;5114654;28;20032;-71
2022/08/09 02:24:42;;;;;;;5.25;2.90;;;19.70;64.30;;;;;;5114707;28;20016;-71
2022/08/09 02:27:10;;;;;;;5.22;3.08;;;19.60;64.40;;;;;;5114613;28;20016;-71
2022/08/09 02:29:45;;;;;;;5.05;2.75;;;19.60;64.50;;;;;;5114494;28;20020;-71
2022/08/09 02:32:13;;;;;;;5.03;2.70;;;19.50;64.40;;;;;;5114215;28;20107;-71
2022/08/09 02:34:41;;;;;;;4.90;3.00;;;19.50;64.40;;;;;;5114496;28;20046;-71
2022/08/09 02:37:13;;;;;;;5.28;2.45;;;19.50;64.40;;;;;;5114426;28;20028;-71
2022/08/09 02:39:45;;;;;;;3.85;2.97;;;19.40;64.60;;;;;;5114475;28;20076;-71
2022/08/09 02:42:18;;;;;;;4.10;2.47;;;19.40;64.70;;;;;;5114366;28;20020;-71
2022/08/09 02:44:59;;;;;;;3.78;2.70;;;19.30;64.90;;;;;;5114341;28;20020;-71
2022/08/09 02:47:28;;;;;;;3.50;2.60;;;19.30;64.90;;;;;;5114257;28;20012;-71
2022/08/09 02:49:58;;;;;;;5.53;2.90;;;19.30;65.20;;;;;;5114216;28;20103;-71
2022/08/09 02:52:30;;;;;;;5.55;3.05;;;19.30;65.30;;;;;;5114152;28;20028;-71
2022/08/09 02:54:57;;;;;;;4.78;2.97;;;19.30;65.30;;;;;;5114163;28;20015;-71
2022/08/09 02:57:23;;;;;;;5.20;2.92;;;19.30;65.30;;;;;;5114089;28;20096;-71
2022/08/09 02:59:50;;;;;;;4.13;2.78;;;19.30;65.40;;;;;;5114078;28;20083;-71
2022/08/09 03:02:18;;;;;;;4.25;2.22;;;19.20;65.60;;;;;;5113001;28;20051;-71
2022/08/09 03:04:45;;;;;;;4.55;2.80;;;19.20;65.60;;;;;;5113737;28;20074;-71
2022/08/09 03:07:13;;;;;;;4.85;3.00;;;19.10;65.70;;;;;;5114068;28;20024;-70
2022/08/09 03:09:40;;;;;;;5.35;3.00;;;19.20;65.70;;;;;;5113888;28;20024;-71
2022/08/09 03:12:06;;;;;;;4.13;3.00;;;19.20;65.70;;;;;;5113848;28;20050;-71
2022/08/09 03:14:32;;;;;;;6.35;3.28;;;19.20;65.80;;;;;;5113805;28;20031;-71
2022/08/09 03:16:59;;;;;;;6.85;3.30;;;19.10;65.90;;;;;;5113786;28;20035;-71
2022/08/09 03:19:27;;;;;;;4.57;2.83;;;19.10;66.00;;;;;;5113757;28;20383;-71
2022/08/09 03:21:55;;;;;;;5.05;3.08;;;19.10;66.20;;;;;;5113609;28;20024;-71
2022/08/09 03:24:21;;;;;;;7.03;3.22;;;19.00;66.30;;;;;;5113661;28;20051;-71
2022/08/09 03:26:47;;;;;;;5.32;3.22;;;19.10;66.20;;;;;;5113754;28;20024;-71
2022/08/09 03:29:14;;;;;;;5.43;3.67;;;19.00;66.00;;;;;;5113624;28;20038;-71
2022/08/09 03:31:40;;;;;;;8.93;3.45;;;19.00;66.40;;;;;;5113597;28;20089;-72
2022/08/09 03:34:07;;;;;;;6.05;3.30;;;19.00;66.60;;;;;;5112540;28;20032;-72
2022/08/09 03:36:33;;;;;;;6.22;3.17;;;18.90;67.00;;;;;;5113557;28;20039;-71
2022/08/09 03:38:59;;;;;;;4.90;3.38;;;18.90;67.00;;;;;;5113538;28;20028;-71
2022/08/09 03:41:25;;;;;;;5.60;3.50;;;18.90;66.60;;;;;;5113574;28;20024;-71
2022/08/09 03:43:50;;;;;;;6.68;3.28;;;19.00;66.30;;;;;;5113461;28;20016;-71
2022/08/09 03:46:16;;;;;;;7.15;3.20;;;19.00;66.20;;;;;;5117640;28;20032;-71
2022/08/09 03:48:43;;;;;;;6.22;3.25;;;18.90;66.10;;;;;;5117838;28;20047;-71
2022/08/09 03:51:10;;;;;;;5.03;3.30;;;19.00;66.40;;;;;;5117631;28;20028;-71
2022/08/09 03:53:38;;;;;;;6.07;3.85;;;18.80;66.90;;;;;;5117572;28;20028;-71
2022/08/09 03:56:04;;;;;;;4.53;3.13;;;18.80;67.00;;;;;;5117543;28;20024;-71
2022/08/09 03:58:31;;;;;;;6.28;3.38;;;18.80;67.10;;;;;;5117502;28;20047;-71
2022/08/09 04:00:57;;;;;;;5.38;3.30;;;18.70;67.30;;;;;;5117374;28;20024;-71
2022/08/09 04:03:23;;;;;;;4.68;3.30;;;18.70;67.40;;;;;;5117211;28;20107;-71
2022/08/09 04:05:49;;;;;;;7.45;3.67;;;18.80;67.20;;;;;;5117423;28;20027;-71
2022/08/09 04:08:14;;;;;;;8.25;3.90;;;18.80;67.00;;;;;;5116371;28;20037;-71
2022/08/09 04:10:40;;;;;;;5.95;3.22;;;18.80;66.80;;;;;;5117398;28;20039;-71
2022/08/09 04:13:09;;;;;;;6.65;3.35;;;18.80;66.70;;;;;;5117226;28;20024;-71
2022/08/09 04:15:35;;;;;;;6.90;3.78;;;18.80;66.70;;;;;;5117183;28;20032;-71
2022/08/09 04:18:01;;;;;;;9.02;4.22;;;18.80;67.00;;;;;;5117114;28;20057;-71
2022/08/09 04:20:28;;;;;;;6.93;3.80;;;18.70;66.90;;;;;;5116970;28;20596;-72
2022/08/09 04:22:54;;;;;;;5.78;3.38;;;18.70;67.10;;;;;;5117054;28;20092;-71
2022/08/09 04:25:19;;;;;;;5.68;3.25;;;18.60;67.30;;;;;;5116976;28;20457;-71
2022/08/09 04:27:45;;;;;;;5.93;3.70;;;18.50;67.50;;;;;;5116905;28;20027;-71
2022/08/09 04:30:13;;;;;;;6.13;3.45;;;18.60;67.80;;;;;;5116964;28;20016;-71
2022/08/09 04:32:40;;;;;;;4.72;3.47;;;18.60;67.70;;;;;;5116836;28;20020;-72
2022/08/09 04:35:08;;;;;;;7.10;3.55;;;18.60;67.80;;;;;;5116782;28;20079;-71
2022/08/09 04:37:34;;;;;;;6.85;3.63;;;18.70;67.60;;;;;;5116734;28;20028;-71
2022/08/09 04:40:00;;;;;;;5.03;3.55;;;18.70;67.50;;;;;;5116812;28;20075;-71
2022/08/09 04:42:30;;;;;;;6.80;3.70;;;18.60;67.40;;;;;;5116552;28;20048;-71
2022/08/09 04:44:56;;;;;;;6.57;4.05;;;18.60;67.50;;;;;;5116875;28;20019;-72
2022/08/09 04:47:23;;;;;;;7.40;3.45;;;18.60;67.50;;;;;;5116545;28;20055;-71
2022/08/09 04:49:49;;;;;;;6.18;3.75;;;18.70;67.60;;;;;;5116518;28;20065;-72
2022/08/09 04:52:15;;;;;;;6.43;3.58;;;18.70;67.50;;;;;;5116433;28;20028;-72
2022/08/09 04:54:40;;;;;;;5.55;3.60;;;18.70;67.60;;;;;;5116409;28;20020;-72
2022/08/09 04:57:08;;;;;;;9.50;5.20;;;18.70;67.80;;;;;;5116098;28;20032;-71
2022/08/09 04:59:33;;;;;;;11.38;4.22;;;18.70;68.00;;;;;;5116353;28;20056;-72
2022/08/09 05:01:59;;;;;;;5.82;3.85;;;18.70;68.10;;;;;;5116341;28;20029;-71
2022/08/09 05:04:25;;;;;;;6.15;4.13;;;18.60;68.40;;;;;;5116107;28;20049;-71
2022/08/09 05:06:50;;;;;;;6.45;3.80;;;18.60;68.70;;;;;;5116333;28;20031;-71
2022/08/09 05:09:16;;;;;;;7.57;4.10;;;18.60;68.90;;;;;;5116127;28;20078;-71
2022/08/09 05:11:42;;;;;;;7.03;4.30;;;18.60;69.20;;;;;;5116113;28;20020;-71
2022/08/09 05:14:07;;;;;;;7.47;4.30;;;18.50;69.60;;;;;;5116174;28;20028;-71
2022/08/09 05:16:34;;;;;;;6.90;4.30;;;18.50;69.80;;;;;;5116018;28;20036;-71
2022/08/09 05:19:00;;;;;;;9.77;6.07;;;18.60;69.70;;;;;;5116034;28;20079;-71
2022/08/09 05:21:26;;;;;;;8.93;5.38;;;18.70;69.70;;;;;;5115831;28;20024;-71
2022/08/09 05:23:52;;;;;;;9.50;5.03;;;18.80;69.60;;;;;;5115884;28;20020;-71
2022/08/09 05:26:17;;;;;;;8.27;4.85;;;18.80;69.60;;;;;;5115802;28;20028;-71
2022/08/09 05:28:43;;;;;;;8.20;4.97;;;18.80;69.70;;;;;;5114806;28;20028;-71
2022/08/09 05:31:09;;;;;;;7.05;4.55;;;18.90;69.80;;;;;;5115734;28;20078;-71
2022/08/09 05:33:34;;;;;;;7.70;4.65;;;18.80;70.10;;;;;;5115643;28;20024;-71
2022/08/09 05:36:00;;;;;;;8.15;4.47;;;18.80;70.40;;;;;;5115635;28;20096;-71
2022/08/09 05:38:26;;;;;;;9.82;4.43;;;18.80;70.30;;;;;;5115717;28;20055;-71
2022/08/09 05:40:52;;;;;;;7.07;4.32;;;18.80;70.20;;;;;;5115460;28;20039;-71
2022/08/09 05:43:19;;;;;;;9.80;4.47;;;18.80;70.60;;;;;;5115483;28;20032;-71
2022/08/09 05:45:45;;;;;;;9.10;4.15;;;18.80;70.70;;;;;;5114399;28;20038;-71
2022/08/09 05:48:10;;;;;;;10.30;4.45;;;18.80;70.80;;;;;;5115404;28;20056;-71
2022/08/09 05:50:37;;;;;;;5.70;4.00;;;18.80;70.80;;;;;;5115352;28;20020;-71
2022/08/09 05:53:03;;;;;;;9.80;4.22;;;18.90;71.40;;;;;;5115309;28;20020;-71
2022/08/09 05:55:29;;;;;;;7.53;4.18;;;18.90;70.80;;;;;;5115252;28;20039;-71
2022/08/09 05:57:54;;;;;;;8.27;4.65;;;18.90;70.80;;;;;;5115235;28;20035;-71
2022/08/09 06:00:20;;;;;;;7.57;4.55;;;18.90;70.90;;;;;;5115069;28;20028;-71
2022/08/09 06:02:46;;;;;;;9.23;4.45;;;19.00;70.90;;;;;;5115119;28;20024;-71
2022/08/09 06:05:12;;;;;;;8.10;4.60;;;19.10;71.00;;;;;;5114904;28;20056;-72
2022/08/09 06:07:37;;;;;;;9.48;4.10;;;19.10;71.00;;;;;;5114303;28;20031;-72
2022/08/09 06:10:03;;;;;;;6.72;4.75;;;19.10;71.00;;;;;;5114962;28;20035;-72
2022/08/09 06:12:30;;;;;;;8.73;4.72;;;19.10;71.00;;;;;;5113914;28;20026;-72
2022/08/09 06:14:55;;;;;;;10.50;4.90;;;19.10;71.00;;;;;;5114836;28;20090;-72
2022/08/09 06:17:21;;;;;;;8.15;4.70;;;19.20;71.00;;;;;;5113885;28;20040;-72
2022/08/09 06:19:47;;;;;;;9.07;4.47;;;19.20;71.10;;;;;;5114890;28;20024;-72
2022/08/09 06:22:13;;;;;;;9.57;4.97;;;19.30;71.20;;;;;;5114607;28;20050;-72
2022/08/09 06:24:39;;;;;;;11.48;4.50;;;19.30;71.10;;;;;;5114654;28;20028;-71
2022/08/09 06:27:05;;;;;;;8.55;4.43;;;19.30;71.10;;;;;;5114636;28;20028;-72
2022/08/09 06:29:30;;;;;;;8.15;4.45;;;19.40;70.90;;;;;;5114412;28;20028;-72
2022/08/09 06:31:56;;;;;;;10.60;4.30;;;19.40;70.90;;;;;;5114519;28;20116;-72
2022/08/09 06:34:21;;;;;;;7.78;4.22;;;19.40;70.70;;;;;;5114500;28;20036;-72
2022/08/09 06:36:47;;;;;;;11.18;4.05;;;19.50;70.60;;;;;;5114429;28;20039;-72
2022/08/09 06:39:13;;;;;;;8.15;4.13;;;19.50;70.50;;;;;;5114421;28;20057;-72
2022/08/09 06:41:39;;;;;;;9.32;4.70;;;19.60;70.60;;;;;;5114274;28;20032;-72
2022/08/09 06:44:04;;;;;;;8.57;3.97;;;19.60;70.50;;;;;;5114341;28;20032;-72
2022/08/09 06:46:30;;;;;;;8.88;4.22;;;19.70;70.50;;;;;;5114304;28;20024;-71
2022/08/09 06:48:56;;;;;;;7.97;4.22;;;19.70;70.50;;;;;;5114253;28;20020;-72
2022/08/09 06:51:21;;;;;;;7.47;3.97;;;19.70;70.30;;;;;;5114179;28;20086;-71
2022/08/09 06:53:47;;;;;;;9.70;4.55;;;19.80;70.20;;;;;;5114163;28;20020;-71
2022/08/09 06:56:13;;;;;;;8.50;4.25;;;19.80;70.00;;;;;;5114087;28;20559;-71
2022/08/09 06:58:38;;;;;;;9.20;4.63;;;19.90;70.10;;;;;;5114155;28;20032;-71
2022/08/09 07:01:05;;;;;;;15.25;4.20;;;19.90;70.00;;;;;;5113974;28;20032;-71
2022/08/09 07:03:33;;;;;;;9.65;4.40;;;19.90;69.80;;;;;;5113922;28;20024;-71
2022/08/09 07:06:01;;;;;;;7.93;4.13;;;20.00;69.60;;;;;;5114007;28;20020;-71
2022/08/09 07:08:27;;;;;;;7.13;4.10;;;20.10;69.50;;;;;;5113923;28;20008;-71
2022/08/09 07:10:53;;;;;;;7.82;3.67;;;20.10;69.40;;;;;;5113892;28;20016;-71
2022/08/09 07:13:19;;;;;;;7.10;3.85;;;20.10;69.30;;;;;;5113835;28;20028;-71
2022/08/09 07:15:45;;;;;;;8.77;4.03;;;20.10;68.90;;;;;;5113813;28;20024;-71
2022/08/09 07:18:11;;;;;;;6.43;3.72;;;20.10;68.80;;;;;;5113776;28;20028;-71
2022/08/09 07:20:36;;;;;;;7.57;3.63;;;20.20;69.00;;;;;;5113792;28;20043;-71
2022/08/09 07:23:02;;;;;;;7.25;3.85;;;20.30;69.00;;;;;;5113836;28;20032;-71
2022/08/09 07:25:28;;;;;;;8.38;3.88;;;20.30;69.80;;;;;;5113692;28;20024;-71
2022/08/09 07:27:54;;;;;;;9.07;4.07;;;20.30;68.80;;;;;;5113575;28;20020;-71
2022/08/09 07:30:19;;;;;;;7.20;4.40;;;20.40;68.80;;;;;;5113630;28;20032;-71
2022/08/09 07:32:45;;;;;;;6.07;3.75;;;20.50;68.60;;;;;;5113609;28;20024;-71
2022/08/09 07:35:12;;;;;;;5.40;3.65;;;20.50;68.50;;;;;;5113694;28;20024;-71
2022/08/09 07:37:39;;;;;;;7.00;3.83;;;20.60;68.50;;;;;;5113507;28;20024;-71
2022/08/09 07:40:05;;;;;;;8.30;3.83;;;20.60;68.30;;;;;;5113520;28;20039;-71
2022/08/09 07:42:31;;;;;;;6.75;3.55;;;20.70;68.30;;;;;;5113424;28;20089;-71
2022/08/09 07:44:57;;;;;;;7.50;3.63;;;20.80;68.60;;;;;;5113469;28;20024;-71
2022/08/09 07:47:22;;;;;;;6.75;3.78;;;20.80;68.10;;;;;;5113460;28;20028;-71
2022/08/09 07:49:48;;;;;;;5.50;3.30;;;20.90;68.00;;;;;;5112484;28;20028;-71
2022/08/09 07:52:13;;;;;;;5.22;3.10;;;21.00;67.60;;;;;;5113430;28;20036;-70
2022/08/09 07:54:39;;;;;;;6.10;3.72;;;21.10;67.40;;;;;;5113381;28;20047;-71
2022/08/09 07:57:05;;;;;;;7.57;3.30;;;21.10;67.40;;;;;;5112432;28;20024;-71
2022/08/09 07:59:31;;;;;;;7.18;3.13;;;21.20;67.40;;;;;;5113349;28;20024;-71
2022/08/09 08:01:56;;;;;;;6.53;3.38;;;21.20;67.00;;;;;;5113247;28;20032;-71
2022/08/09 08:04:22;;;;;;;6.20;3.47;;;21.30;66.80;;;;;;5113088;28;20040;-71
2022/08/09 08:06:48;;;;;;;6.38;2.85;;;21.30;66.00;;;;;;5113299;28;20024;-71
2022/08/09 08:09:13;;;;;;;6.07;2.95;;;21.40;65.80;;;;;;5113223;28;20032;-71
2022/08/09 08:11:39;;;;;;;6.97;2.90;;;21.50;66.50;;;;;;5113266;28;20024;-71
2022/08/09 08:14:05;;;;;;;5.07;2.83;;;21.50;65.80;;;;;;5113197;28;20032;-71
2022/08/09 08:16:30;;;;;;;4.68;2.58;;;21.60;65.30;;;;;;5112171;28;20087;-72
2022/08/09 08:18:59;;;;;;;6.25;2.80;;;21.70;65.50;;;;;;5113157;28;20024;-71
2022/08/09 08:21:24;;;;;;;7.13;2.90;;;21.80;65.30;;;;;;5113050;28;20094;-73
2022/08/09 08:23:50;;;;;;;7.07;2.20;;;21.90;65.00;;;;;;5113086;28;20115;-71
2022/08/09 08:26:16;;;;;;;4.95;2.40;;;22.00;64.50;;;;;;5113107;28;20024;-71
2022/08/09 08:28:42;;;;;;;4.75;2.47;;;22.00;64.50;;;;;;5113012;28;20028;-72
2022/08/09 08:31:08;;;;;;;4.93;2.42;;;22.10;64.20;;;;;;5115061;28;20028;-70
2022/08/09 08:33:34;;;;;;;5.65;2.70;;;22.20;63.60;;;;;;5116911;28;20044;-70
2022/08/09 08:35:59;;;;;;;3.55;2.60;;;22.20;63.40;;;;;;5116828;28;20035;-70
2022/08/09 08:38:25;;;;;;;5.57;2.90;;;22.30;63.60;;;;;;5115894;28;20028;-70
2022/08/09 08:40:54;;;;;;;6.60;3.03;;;22.30;63.10;;;;;;5116687;28;20035;-70
2022/08/09 08:43:20;;;;;;;6.72;3.00;;;22.40;62.60;;;;;;5116702;28;20020;-71
2022/08/09 08:45:50;;;;;;;6.05;2.80;;;22.40;63.50;;;;;;5116626;28;20020;-71
2022/08/09 08:48:17;;;;;;;5.32;3.10;;;22.40;62.90;;;;;;5116560;28;20028;-71
2022/08/09 08:50:44;;;;;;;9.57;2.70;;;22.50;62.50;;;;;;5116561;28;20063;-71
2022/08/09 08:53:11;;;;;;;4.35;2.75;;;22.60;62.80;;;;;;5116516;28;20046;-71
2022/08/09 08:55:37;;;;;;;5.45;2.55;;;22.60;62.80;;;;;;5116439;28;20049;-70
2022/08/09 08:58:03;;;;;;;4.20;2.58;;;22.70;61.70;;;;;;5116391;28;20047;-71
2022/08/09 09:00:32;;;;;;;5.47;2.63;;;22.80;61.90;;;;;;5116257;28;20088;-71
2022/08/09 09:02:59;;;;;;;3.88;2.35;;;22.80;60.70;;;;;;5116293;28;20034;-71
2022/08/09 09:05:25;;;;;;;4.10;2.58;;;22.80;61.30;;;;;;5116111;28;20036;-71
2022/08/09 09:07:52;;;;;;;4.20;2.38;;;22.90;61.50;;;;;;5116245;28;20023;-71
2022/08/09 09:10:19;;;;;;;3.65;2.28;;;23.00;61.20;;;;;;5116154;28;20016;-71
2022/08/09 09:12:47;;;;;;;6.75;2.38;;;23.00;61.10;;;;;;5116154;28;20026;-71
2022/08/09 09:15:13;;;;;;;4.43;2.38;;;23.20;61.20;;;;;;5116088;28;20024;-71
2022/08/09 09:17:38;;;;;;;4.85;2.67;;;23.20;60.40;;;;;;5115999;28;20043;-71
2022/08/09 09:20:12;;;;;;;3.78;2.05;;;23.30;59.70;;;;;;5115992;28;20048;-73
2022/08/09 09:22:52;;;;;;;4.47;2.00;;;23.40;59.50;;;;;;5115887;28;20028;-73
2022/08/09 09:25:37;;;;;;;6.00;1.90;;;23.40;58.90;;;;;;5115881;28;20020;-73
2022/08/09 09:28:04;;;;;;;3.55;1.80;;;23.50;58.60;;;;;;5115795;28;20076;-72
2022/08/09 09:30:30;;;;;;;3.38;1.65;;;23.50;58.10;;;;;;5115822;28;20012;-72
2022/08/09 09:33:09;;;;;;;4.63;2.67;;;23.60;57.50;;;;;;5115730;28;20062;-72
2022/08/09 09:35:51;;;;;;;7.68;2.13;;;23.70;57.80;;;;;;5114687;28;20024;-72
2022/08/09 09:38:17;;;;;;;3.15;1.95;;;23.80;57.90;;;;;;5115835;28;20021;-72
2022/08/09 09:40:43;;;;;;;2.13;1.70;;;23.80;57.90;;;;;;5115664;28;20028;-72
2022/08/09 09:43:16;;;;;;;4.80;2.10;;;23.90;58.80;;;;;;5114424;28;20028;-72
2022/08/09 09:45:49;;;;;;;;;;;23.90;57.20;;;;;;5115934;28;20078;-72
2022/08/09 09:48:15;;;;;;;4.82;1.63;;;24.00;57.60;;;;;;5115446;28;19908;-72
2022/08/09 09:50:46;;;;;;;1.75;1.60;;;24.10;57.20;;;;;;5115376;28;20027;-72
2022/08/09 09:53:21;;;;;;;2.83;1.30;;;24.10;56.20;;;;;;5115340;28;20049;-72
2022/08/09 09:55:59;;;;;;;4.63;1.55;;;24.20;55.70;;;;;;5115292;28;20039;-72
2022/08/09 09:58:45;;;;;;;3.83;1.52;;;24.30;55.00;;;;;;5115222;28;20028;-71
2022/08/09 10:01:19;;;;;;;2.92;1.23;;;24.30;55.70;;;;;;5115154;28;20035;-72
2022/08/09 10:03:46;;;;;;;4.30;1.40;;;24.50;55.00;;;;;;5114944;28;20063;-71
2022/08/09 10:06:13;;;;;;;2.75;1.83;;;24.50;55.20;;;;;;5115137;28;20055;-72
2022/08/09 10:08:41;;;;;;;2.20;1.40;;;24.60;54.30;;;;;;5114999;28;20032;-72
2022/08/09 10:11:24;;;;;;;2.63;1.38;;;24.60;54.20;;;;;;5114989;28;20024;-72
2022/08/09 10:13:52;;;;;;;3.30;1.58;;;24.80;53.30;;;;;;5114955;28;20028;-72
2022/08/09 10:16:33;;;;;;;3.00;1.52;;;24.80;53.60;;;;;;5114880;28;20028;-71
2022/08/09 10:19:02;;;;;;;2.38;1.33;;;24.90;52.80;;;;;;5114841;28;20451;-72
2022/08/09 10:21:28;;;;;;;2.85;1.27;;;25.00;52.50;;;;;;5114691;28;20020;-72
2022/08/09 10:23:55;;;;;;;1.90;1.27;;;25.10;54.40;;;;;;5114750;28;20083;-72
2022/08/09 10:26:22;;;;;;;1.50;1.30;;;25.10;53.00;;;;;;5114587;28;20023;-72
2022/08/09 10:28:48;;;;;;;2.38;1.20;;;25.20;52.40;;;;;;5114581;28;20020;-72
2022/08/09 10:31:14;;;;;;;2.75;1.30;;;25.20;51.30;;;;;;5114590;28;20032;-72
2022/08/09 10:33:41;;;;;;;3.70;1.40;;;25.30;52.20;;;;;;5114577;28;20087;-72
2022/08/09 10:36:09;;;;;;;2.25;1.10;;;25.40;51.60;;;;;;5114511;28;20406;-72
2022/08/09 10:38:36;;;;;;;3.80;1.20;;;25.50;51.50;;;;;;5114422;28;20032;-72
2022/08/09 10:41:03;;;;;;;2.15;1.15;;;25.60;51.00;;;;;;5114319;28;20509;-72
2022/08/09 10:43:29;;;;;;;4.00;1.33;;;25.60;50.70;;;;;;5114371;28;20024;-72
2022/08/09 10:46:00;;;;;;;1.77;1.10;;;25.70;49.90;;;;;;5114355;28;20024;-72
2022/08/09 10:48:34;;;;;;;1.50;1.17;;;25.80;49.60;;;;;;5114341;28;20023;-72
2022/08/09 10:51:24;;;;;;;1.73;1.10;;;25.80;50.00;;;;;;5114205;28;20031;-72
2022/08/09 10:54:06;;;;;;;4.65;1.30;;;25.80;48.00;;;;;;5114077;28;20031;-72
2022/08/09 10:56:34;;;;;;;1.75;1.30;;;25.80;49.00;;;;;;5114366;28;20171;-72
2022/08/09 10:59:21;;;;;;;2.95;1.17;;;25.80;49.10;;;;;;5114106;28;20028;-72
2022/08/09 11:01:48;;;;;;;1.55;1.10;;;25.90;48.40;;;;;;5114060;28;20024;-72
2022/08/09 11:04:25;;;;;;;3.58;1.85;;;26.00;48.80;;;;;;5113817;28;20052;-72
2022/08/09 11:06:56;;;;;;;2.60;1.10;;;26.00;46.20;;;;;;5114175;28;20031;-72
2022/08/09 11:09:42;;;;;;;2.03;1.10;;;26.00;48.00;;;;;;5113960;28;20024;-72
2022/08/09 11:12:10;;;;;;;2.08;1.23;;;26.10;48.00;;;;;;5113810;28;20032;-72
2022/08/09 11:14:43;;;;;;;1.73;1.15;;;26.20;48.10;;;;;;5113857;28;20028;-72
2022/08/09 11:17:12;;;;;;;2.35;1.05;;;26.20;47.70;;;;;;5113821;28;20045;-72
2022/08/09 11:20:02;;;;;;;1.85;0.85;;;26.30;46.60;;;;;;5113779;28;20032;-73
2022/08/09 11:22:43;;;;;;;1.73;1.05;;;26.40;47.10;;;;;;5113681;28;20020;-73
2022/08/09 11:25:15;;;;;;;1.38;1.10;;;26.50;47.20;;;;;;5113739;28;20070;-72
2022/08/09 11:27:47;;;;;;;2.30;1.10;;;26.40;46.60;;;;;;5113764;28;20016;-72
2022/08/09 11:30:21;;;;;;;1.83;1.05;;;26.50;47.20;;;;;;5113555;28;20051;-72
2022/08/09 11:32:48;;;;;;;1.55;1.10;;;26.60;47.00;;;;;;5113726;28;20020;-72
2022/08/09 11:35:16;;;;;;;1.42;1.10;;;26.70;46.30;;;;;;5113627;28;20065;-72
2022/08/09 11:37:43;;;;;;;2.80;1.20;;;26.70;45.80;;;;;;5112602;28;20027;-73
2022/08/09 11:40:32;;;;;;;1.10;0.95;;;26.80;45.30;;;;;;5113540;28;20020;-72
2022/08/09 11:42:59;;;;;;;0.73;0.70;;;26.80;43.80;;;;;;5110603;28;20036;-72
2022/08/09 11:45:29;;;;;;;1.73;1.00;;;26.80;44.80;;;;;;5113461;28;20502;-73
2022/08/09 11:47:57;;;;;;;1.77;1.23;;;26.90;45.30;;;;;;5113468;28;20473;-73
2022/08/09 11:50:23;;;;;;;1.30;1.10;;;26.90;44.80;;;;;;5113466;28;20042;-72
2022/08/09 11:52:58;;;;;;;2.42;1.20;;;26.90;44.90;;;;;;5113430;28;20049;-72
2022/08/09 11:55:36;;;;;;;3.25;1.10;;;27.10;44.10;;;;;;5113390;28;20080;-72
2022/08/09 11:58:22;;;;;;;1.20;0.90;;;27.10;44.10;;;;;;5113364;28;20020;-72
2022/08/09 12:01:02;;;;;;;3.67;1.10;;;27.30;43.80;;;;;;5109224;28;20040;-72
2022/08/09 12:03:28;;;;;;;3.00;1.10;;;27.20;43.30;;;;;;5113310;28;20025;-72
2022/08/09 12:05:56;;;;;;;3.67;1.10;;;27.30;44.70;;;;;;5114919;28;20028;-72
2022/08/09 12:08:23;;;;;;;2.22;1.10;;;27.30;43.90;;;;;;5117360;28;20027;-72
2022/08/09 12:10:54;;;;;;;3.17;1.10;;;27.50;44.30;;;;;;5117367;28;20047;-72
2022/08/09 12:13:40;;;;;;;1.35;0.98;;;27.60;44.20;;;;;;5117322;28;20024;-72
2022/08/09 12:16:09;;;;;;;6.22;1.30;;;27.70;43.10;;;;;;5117272;28;20044;-72
2022/08/09 12:18:36;;;;;;;3.50;1.17;;;27.70;42.90;;;;;;5117215;28;20032;-72
2022/08/09 12:21:05;;;;;;;1.15;0.85;;;27.80;42.60;;;;;;5117114;28;20028;-72
2022/08/09 12:23:32;;;;;;;1.88;0.90;;;27.80;42.30;;;;;;5117111;28;20034;-72
2022/08/09 12:25:59;;;;;;;1.70;0.95;;;27.80;42.00;;;;;;5117041;28;20057;-72
2022/08/09 12:28:26;;;;;;;5.63;1.30;;;27.90;42.70;;;;;;5116935;28;20084;-73
2022/08/09 12:30:52;;;;;;;1.05;0.80;;;28.00;41.90;;;;;;5116934;28;20035;-73
2022/08/09 12:33:19;;;;;;;1.00;0.90;;;28.10;41.00;;;;;;5116913;28;20058;-72
2022/08/09 12:35:46;;;;;;;2.20;1.20;;;28.10;40.40;;;;;;5116867;28;20491;-73
2022/08/09 12:38:24;;;;;;;4.32;1.15;;;28.10;40.50;;;;;;5116811;28;20032;-73
2022/08/09 12:40:51;;;;;;;3.45;1.10;;;28.10;41.70;;;;;;5116706;28;20054;-73
2022/08/09 12:43:22;;;;;;;2.13;1.00;;;28.20;41.30;;;;;;5116704;28;20024;-72
2022/08/09 12:45:48;;;;;;;1.58;1.10;;;28.20;39.90;;;;;;5115878;28;20024;-73
2022/08/09 12:48:15;;;;;;;1.45;1.30;;;28.30;40.00;;;;;;5116625;28;20028;-73
2022/08/09 12:50:42;;;;;;;1.35;1.02;;;28.30;40.90;;;;;;5116556;28;20026;-73
2022/08/09 12:53:26;;;;;;;2.83;0.95;;;28.40;40.90;;;;;;5116611;28;20024;-73